createdAt,value
2018-03-31T00:00:05.805Z,70.50
2018-03-31T00:01:08.922Z,70.80
2018-03-31T00:02:06.669Z,70.80
2018-03-31T00:03:06.256Z,71.00
2018-03-31T00:04:10.892Z,71.00
2018-03-31T00:05:06.498Z,71.10
2018-03-31T00:06:11.200Z,70.80
2018-03-31T00:07:13.245Z,70.50
2018-03-31T00:08:05.608Z,70.50
2018-03-31T00:09:13.231Z,13.20
2018-03-31T00:10:05.788Z,70.80
2018-03-31T00:11:06.460Z,71.20
2018-03-31T00:12:11.091Z,71.80
2018-03-31T00:13:06.436Z,71.80
2018-03-31T00:14:07.158Z,71.60
2018-03-31T00:15:10.781Z,71.50
2018-03-31T00:16:10.702Z,71.50
2018-03-31T00:17:06.155Z,71.40
2018-03-31T00:18:08.241Z,71.10
2018-03-31T00:19:05.698Z,71.10
2018-03-31T00:20:05.475Z,71.10
2018-03-31T00:21:06.460Z,71.10
2018-03-31T00:22:08.587Z,71.10
2018-03-31T00:23:08.559Z,71.40
2018-03-31T00:24:06.041Z,71.40
2018-03-31T00:25:05.823Z,71.10
2018-03-31T00:26:05.743Z,70.70
2018-03-31T00:27:08.956Z,70.50
2018-03-31T00:28:06.434Z,70.60
2018-03-31T00:29:06.014Z,70.60
2018-03-31T00:30:05.715Z,70.60
2018-03-31T00:31:05.788Z,70.60
2018-03-31T00:32:13.216Z,70.50
2018-03-31T00:33:06.044Z,70.50
2018-03-31T00:34:08.243Z,70.50
2018-03-31T00:35:10.682Z,70.50
2018-03-31T00:36:06.232Z,70.50
2018-03-31T00:37:10.892Z,70.60
2018-03-31T00:38:08.925Z,70.60
2018-03-31T00:39:11.224Z,70.60
2018-03-31T00:40:05.849Z,70.60
2018-03-31T00:41:05.779Z,70.60
2018-03-31T00:42:11.324Z,70.90
2018-03-31T00:43:05.790Z,71.30
2018-03-31T00:44:05.773Z,71.50
2018-03-31T00:45:06.232Z,72.20
2018-03-31T00:46:08.569Z,72.20
2018-03-31T00:47:08.181Z,72.40
2018-03-31T00:48:05.702Z,72.30
2018-03-31T00:49:05.613Z,72.30
2018-03-31T00:50:10.937Z,72.80
2018-03-31T00:51:05.611Z,72.80
2018-03-31T00:52:06.359Z,72.80
2018-03-31T00:53:06.281Z,73.00
2018-03-31T00:54:05.807Z,73.20
2018-03-31T00:55:06.619Z,73.70
2018-03-31T00:56:06.309Z,73.80
2018-03-31T00:57:05.983Z,73.80
2018-03-31T00:58:05.928Z,74.10
2018-03-31T00:59:09.004Z,74.10
2018-03-31T01:00:06.461Z,74.10
2018-03-31T01:01:08.208Z,74.40
2018-03-31T01:02:06.567Z,74.40
2018-03-31T01:03:06.166Z,74.40
2018-03-31T01:04:10.957Z,74.30
2018-03-31T01:05:05.398Z,74.30
2018-03-31T01:06:05.425Z,74.40
2018-03-31T01:07:13.139Z,74.20
2018-03-31T01:08:05.730Z,74.20
2018-03-31T01:09:08.912Z,74.20
2018-03-31T01:10:08.937Z,74.50
2018-03-31T01:11:05.552Z,74.60
2018-03-31T01:12:08.811Z,74.60
2018-03-31T01:13:11.301Z,74.60
2018-03-31T01:14:10.907Z,74.60
2018-03-31T01:15:08.929Z,74.80
2018-03-31T01:16:11.474Z,74.80
2018-03-31T01:17:06.130Z,75.20
2018-03-31T01:18:05.861Z,75.20
2018-03-31T01:19:10.713Z,75.30
2018-03-31T01:20:06.209Z,75.30
2018-03-31T01:21:05.727Z,75.20
2018-03-31T01:22:10.665Z,75.70
2018-03-31T01:23:10.833Z,77.20
2018-03-31T01:24:08.907Z,77.60
2018-03-31T01:25:06.736Z,77.70
2018-03-31T01:26:06.401Z,77.60
2018-03-31T01:27:11.051Z,77.70
2018-03-31T01:28:10.572Z,77.60
2018-03-31T01:29:09.642Z,77.90
2018-03-31T01:30:06.000Z,78.00
2018-03-31T01:31:10.680Z,78.20
2018-03-31T01:32:06.235Z,78.20
2018-03-31T01:33:14.066Z,77.80
2018-03-31T01:34:05.640Z,77.80
2018-03-31T01:35:10.605Z,77.70
2018-03-31T01:36:08.633Z,77.90
2018-03-31T01:37:06.179Z,77.90
2018-03-31T01:38:05.973Z,78.10
2018-03-31T01:39:10.770Z,78.40
2018-03-31T01:40:11.311Z,78.30
2018-03-31T01:41:05.779Z,78.10
2018-03-31T01:42:05.783Z,78.00
2018-03-31T01:43:06.377Z,78.20
2018-03-31T01:44:11.098Z,78.80
2018-03-31T01:45:05.613Z,78.80
2018-03-31T01:46:05.793Z,78.70
2018-03-31T01:47:05.706Z,78.50
2018-03-31T01:48:08.947Z,79.10
2018-03-31T01:49:11.547Z,78.90
2018-03-31T01:50:06.025Z,79.00
2018-03-31T01:51:05.642Z,78.90
2018-03-31T01:52:05.486Z,78.80
2018-03-31T01:53:05.449Z,78.80
2018-03-31T01:54:06.558Z,78.80
2018-03-31T01:55:06.398Z,78.90
2018-03-31T01:56:05.885Z,79.10
2018-03-31T01:57:05.961Z,79.20
2018-03-31T01:58:05.834Z,79.40
2018-03-31T01:59:10.776Z,79.60
2018-03-31T02:00:05.773Z,79.60
2018-03-31T02:01:13.039Z,80.20
2018-03-31T02:02:05.694Z,80.10
2018-03-31T02:03:08.135Z,80.30
2018-03-31T02:04:05.691Z,80.40
2018-03-31T02:05:08.843Z,80.50
2018-03-31T02:06:11.290Z,80.70
2018-03-31T02:07:10.810Z,80.60
2018-03-31T02:08:08.706Z,81.00
2018-03-31T02:09:05.904Z,80.90
2018-03-31T02:10:05.520Z,81.10
2018-03-31T02:11:05.801Z,81.00
2018-03-31T02:12:08.888Z,81.50
2018-03-31T02:13:06.336Z,81.50
2018-03-31T02:14:06.040Z,81.50
2018-03-31T02:15:05.666Z,81.80
2018-03-31T02:16:05.825Z,82.70
2018-03-31T02:17:05.825Z,82.80
2018-03-31T02:18:06.702Z,82.90
2018-03-31T02:19:11.350Z,83.00
2018-03-31T02:20:06.082Z,83.00
2018-03-31T02:21:05.652Z,83.00
2018-03-31T02:22:05.768Z,83.10
2018-03-31T02:23:05.736Z,83.20
2018-03-31T02:24:06.524Z,83.30
2018-03-31T02:25:06.107Z,83.70
2018-03-31T02:26:10.682Z,83.70
2018-03-31T02:27:10.948Z,83.60
2018-03-31T02:28:06.437Z,83.60
2018-03-31T02:29:07.014Z,83.50
2018-03-31T02:30:05.656Z,83.70
2018-03-31T02:31:13.794Z,83.80
2018-03-31T02:32:11.297Z,83.70
2018-03-31T02:33:05.944Z,83.70
2018-03-31T02:34:05.530Z,83.60
2018-03-31T02:35:08.825Z,83.70
2018-03-31T02:36:08.908Z,83.70
2018-03-31T02:37:05.619Z,83.70
2018-03-31T02:38:08.296Z,83.90
2018-03-31T02:39:06.068Z,83.90
2018-03-31T02:40:06.442Z,84.40
2018-03-31T02:41:11.134Z,84.60
2018-03-31T02:42:05.488Z,84.50
2018-03-31T02:43:06.546Z,84.50
2018-03-31T02:44:08.592Z,84.60
2018-03-31T02:45:11.061Z,84.60
2018-03-31T02:46:05.527Z,84.40
2018-03-31T02:47:06.612Z,84.70
2018-03-31T02:48:06.362Z,84.80
2018-03-31T02:49:08.520Z,85.30
2018-03-31T02:50:05.955Z,85.20
2018-03-31T02:51:05.563Z,85.40
2018-03-31T02:52:06.197Z,85.40
2018-03-31T02:53:08.475Z,85.40
2018-03-31T02:54:05.628Z,85.40
2018-03-31T02:55:05.640Z,85.40
2018-03-31T02:56:11.667Z,85.20
2018-03-31T02:57:06.144Z,85.40
2018-03-31T02:58:06.174Z,85.40
2018-03-31T02:59:10.853Z,85.40
2018-03-31T03:00:08.821Z,85.50
2018-03-31T03:01:06.461Z,85.40
2018-03-31T03:02:06.124Z,85.40
2018-03-31T03:03:10.733Z,85.70
2018-03-31T03:04:06.066Z,85.70
2018-03-31T03:05:05.703Z,85.90
2018-03-31T03:06:06.209Z,86.00
2018-03-31T03:07:05.820Z,86.10
2018-03-31T03:08:08.378Z,85.90
2018-03-31T03:09:05.800Z,85.90
2018-03-31T03:10:05.804Z,85.90
2018-03-31T03:11:05.972Z,85.90
2018-03-31T03:12:10.679Z,85.90
2018-03-31T03:13:08.438Z,86.10
2018-03-31T03:14:05.889Z,86.10
2018-03-31T03:15:05.664Z,86.10
2018-03-31T03:16:08.207Z,85.90
2018-03-31T03:17:05.815Z,85.90
2018-03-31T03:18:06.021Z,86.10
2018-03-31T03:19:10.745Z,86.00
2018-03-31T03:20:08.747Z,60.00
2018-03-31T03:21:08.682Z,85.70
2018-03-31T03:22:06.334Z,85.80
2018-03-31T03:23:08.478Z,85.50
2018-03-31T03:24:06.016Z,85.50
2018-03-31T03:25:08.116Z,85.30
2018-03-31T03:26:05.786Z,85.30
2018-03-31T03:27:05.562Z,85.30
2018-03-31T03:28:05.560Z,85.50
2018-03-31T03:29:13.723Z,85.40
2018-03-31T03:30:11.189Z,85.30
2018-03-31T03:31:05.694Z,85.30
2018-03-31T03:32:07.990Z,85.20
2018-03-31T03:33:06.483Z,85.20
2018-03-31T03:34:08.277Z,85.00
2018-03-31T03:35:10.726Z,85.00
2018-03-31T03:36:08.758Z,85.00
2018-03-31T03:37:06.582Z,85.00
2018-03-31T03:38:06.215Z,85.00
2018-03-31T03:39:08.415Z,85.00
2018-03-31T03:40:08.476Z,85.00
2018-03-31T03:41:06.084Z,85.00
2018-03-31T03:42:05.564Z,85.00
2018-03-31T03:43:05.545Z,84.90
2018-03-31T03:44:05.905Z,84.90
2018-03-31T03:45:05.790Z,84.90
2018-03-31T03:46:06.391Z,84.90
2018-03-31T03:47:10.966Z,84.90
2018-03-31T03:48:08.958Z,84.80
2018-03-31T03:49:08.921Z,84.70
2018-03-31T03:50:06.720Z,84.70
2018-03-31T03:51:08.824Z,84.70
2018-03-31T03:52:06.226Z,84.70
2018-03-31T03:53:05.869Z,84.60
2018-03-31T03:54:05.534Z,84.60
2018-03-31T03:55:11.243Z,84.60
2018-03-31T03:56:11.732Z,84.60
2018-03-31T03:57:06.147Z,84.50
2018-03-31T03:58:05.806Z,84.50
2018-03-31T03:59:10.696Z,84.60
2018-03-31T04:00:06.273Z,84.60
2018-03-31T04:01:11.438Z,84.60
2018-03-31T04:02:05.846Z,84.70
2018-03-31T04:03:11.018Z,84.70
2018-03-31T04:04:05.677Z,84.70
2018-03-31T04:05:10.738Z,85.20
2018-03-31T04:06:08.733Z,85.20
2018-03-31T04:07:06.402Z,85.30
2018-03-31T04:08:06.216Z,85.30
2018-03-31T04:09:05.853Z,85.10
2018-03-31T04:10:05.777Z,85.00
2018-03-31T04:11:08.869Z,85.00
2018-03-31T04:12:06.230Z,84.90
2018-03-31T04:13:06.192Z,85.00
2018-03-31T04:14:06.027Z,85.10
2018-03-31T04:15:05.593Z,85.10
2018-03-31T04:16:11.367Z,85.10
2018-03-31T04:17:08.506Z,85.20
2018-03-31T04:18:11.129Z,85.10
2018-03-31T04:19:05.550Z,85.10
2018-03-31T04:20:10.851Z,85.20
2018-03-31T04:21:11.475Z,85.20
2018-03-31T04:22:05.756Z,85.70
2018-03-31T04:23:05.861Z,85.90
2018-03-31T04:24:05.586Z,85.60
2018-03-31T04:25:10.236Z,85.80
2018-03-31T04:26:05.930Z,85.70
2018-03-31T04:27:08.064Z,85.90
2018-03-31T04:28:05.841Z,85.90
2018-03-31T04:29:05.758Z,85.90
2018-03-31T04:30:11.069Z,86.00
2018-03-31T04:31:13.031Z,85.90
2018-03-31T04:32:08.071Z,86.10
2018-03-31T04:33:10.935Z,86.20
2018-03-31T04:34:11.430Z,86.20
2018-03-31T04:35:06.050Z,86.10
2018-03-31T04:36:05.885Z,86.30
2018-03-31T04:37:06.029Z,86.20
2018-03-31T04:38:06.012Z,86.30
2018-03-31T04:39:05.657Z,86.40
2018-03-31T04:40:05.851Z,86.20
2018-03-31T04:41:05.517Z,86.20
2018-03-31T04:42:08.093Z,86.50
2018-03-31T04:43:05.539Z,86.40
2018-03-31T04:44:05.633Z,86.50
2018-03-31T04:45:06.154Z,86.40
2018-03-31T04:46:05.742Z,83.30
2018-03-31T04:47:18.288Z,86.50
2018-03-31T04:48:05.840Z,86.50
2018-03-31T04:49:05.764Z,86.60
2018-03-31T04:50:08.138Z,86.40
2018-03-31T04:51:05.703Z,86.40
2018-03-31T04:52:06.198Z,86.40
2018-03-31T04:53:06.084Z,86.40
2018-03-31T04:54:05.713Z,86.40
2018-03-31T04:55:10.816Z,86.70
2018-03-31T04:56:08.869Z,86.70
2018-03-31T04:57:09.026Z,86.60
2018-03-31T04:58:06.712Z,86.60
2018-03-31T04:59:06.358Z,86.60
2018-03-31T05:00:06.119Z,86.50
2018-03-31T05:01:11.545Z,86.70
2018-03-31T05:02:11.069Z,86.70
2018-03-31T05:03:08.277Z,86.70
2018-03-31T05:04:05.796Z,86.70
2018-03-31T05:05:06.359Z,86.70
2018-03-31T05:06:06.343Z,86.70
2018-03-31T05:07:06.729Z,86.90
2018-03-31T05:08:11.398Z,86.90
2018-03-31T05:09:06.035Z,86.90
2018-03-31T05:10:05.939Z,87.00
2018-03-31T05:11:13.297Z,87.00
2018-03-31T05:12:05.924Z,87.00
2018-03-31T05:13:08.347Z,87.10
2018-03-31T05:14:08.358Z,87.00
2018-03-31T05:15:05.878Z,87.00
2018-03-31T05:16:10.871Z,86.90
2018-03-31T05:17:11.550Z,86.90
2018-03-31T05:18:06.116Z,86.90
2018-03-31T05:19:05.518Z,86.90
2018-03-31T05:20:08.883Z,87.00
2018-03-31T05:21:06.373Z,87.00
2018-03-31T05:22:06.481Z,86.90
2018-03-31T05:23:06.863Z,87.00
2018-03-31T05:24:06.521Z,87.00
2018-03-31T05:25:11.083Z,87.10
2018-03-31T05:26:11.742Z,87.00
2018-03-31T05:27:08.801Z,87.00
2018-03-31T05:28:11.303Z,87.10
2018-03-31T05:29:05.902Z,87.00
2018-03-31T05:30:08.252Z,87.20
2018-03-31T05:31:05.798Z,87.20
2018-03-31T05:32:08.219Z,87.20
2018-03-31T05:33:05.833Z,87.20
2018-03-31T05:34:06.617Z,87.20
2018-03-31T05:35:06.692Z,87.20
2018-03-31T05:36:05.776Z,87.20
2018-03-31T05:37:08.720Z,87.30
2018-03-31T05:38:08.758Z,87.40
2018-03-31T05:39:06.286Z,87.30
2018-03-31T05:40:06.193Z,87.30
2018-03-31T05:41:08.268Z,87.30
2018-03-31T05:42:08.306Z,87.20
2018-03-31T05:43:05.743Z,87.20
2018-03-31T05:44:06.996Z,87.20
2018-03-31T05:45:08.076Z,87.20
2018-03-31T05:46:08.973Z,87.20
2018-03-31T05:47:11.424Z,87.20
2018-03-31T05:48:10.852Z,87.20
2018-03-31T05:49:08.661Z,87.40
2018-03-31T05:50:11.398Z,87.40
2018-03-31T05:51:06.228Z,87.40
2018-03-31T05:52:08.535Z,87.30
2018-03-31T05:53:06.413Z,87.30
2018-03-31T05:54:14.246Z,87.20
2018-03-31T05:55:10.580Z,87.30
2018-03-31T05:56:05.891Z,87.30
2018-03-31T05:57:10.681Z,87.60
2018-03-31T05:58:06.146Z,87.60
2018-03-31T05:59:05.931Z,87.50
2018-03-31T06:00:05.862Z,87.40
2018-03-31T06:01:05.683Z,87.40
2018-03-31T06:02:08.423Z,87.40
2018-03-31T06:03:05.919Z,87.40
2018-03-31T06:04:06.939Z,87.40
2018-03-31T06:05:05.758Z,87.40
2018-03-31T06:06:11.307Z,87.40
2018-03-31T06:07:10.922Z,87.40
2018-03-31T06:08:06.403Z,87.60
2018-03-31T06:09:11.435Z,87.40
2018-03-31T06:10:05.849Z,87.40
2018-03-31T06:11:09.104Z,87.40
2018-03-31T06:12:05.653Z,87.40
2018-03-31T06:13:08.773Z,87.70
2018-03-31T06:14:06.266Z,87.60
2018-03-31T06:15:05.829Z,87.60
2018-03-31T06:16:11.062Z,87.50
2018-03-31T06:17:10.615Z,87.60
2018-03-31T06:18:11.202Z,87.50
2018-03-31T06:19:11.663Z,87.60
2018-03-31T06:20:06.283Z,87.60
2018-03-31T06:21:08.423Z,87.70
2018-03-31T06:22:06.057Z,87.70
2018-03-31T06:23:06.226Z,87.80
2018-03-31T06:24:08.331Z,87.80
2018-03-31T06:25:06.086Z,87.70
2018-03-31T06:26:06.246Z,87.80
2018-03-31T06:27:06.153Z,87.60
2018-03-31T06:28:09.061Z,87.90
2018-03-31T06:29:05.930Z,87.90
2018-03-31T06:30:10.754Z,87.80
2018-03-31T06:31:06.031Z,87.80
2018-03-31T06:32:06.145Z,87.60
2018-03-31T06:33:06.113Z,87.60
2018-03-31T06:34:05.746Z,87.80
2018-03-31T06:35:08.204Z,87.90
2018-03-31T06:36:05.828Z,88.00
2018-03-31T06:37:08.311Z,88.00
2018-03-31T06:38:05.765Z,87.90
2018-03-31T06:39:06.561Z,87.80
2018-03-31T06:40:08.698Z,87.90
2018-03-31T06:41:05.908Z,87.90
2018-03-31T06:42:11.048Z,87.90
2018-03-31T06:43:09.069Z,87.90
2018-03-31T06:44:05.512Z,87.90
2018-03-31T06:45:06.427Z,88.10
2018-03-31T06:46:06.025Z,88.20
2018-03-31T06:47:11.090Z,88.40
2018-03-31T06:48:05.949Z,88.30
2018-03-31T06:49:10.546Z,88.50
2018-03-31T06:50:11.760Z,88.60
2018-03-31T06:51:07.173Z,88.60
2018-03-31T06:52:05.797Z,88.60
2018-03-31T06:53:10.953Z,88.80
2018-03-31T06:54:05.825Z,88.80
2018-03-31T06:55:05.809Z,88.90
2018-03-31T06:56:10.799Z,88.80
2018-03-31T06:57:06.399Z,88.90
2018-03-31T06:58:06.155Z,88.90
2018-03-31T06:59:06.352Z,88.90
2018-03-31T07:00:06.299Z,89.00
2018-03-31T07:01:08.430Z,89.00
2018-03-31T07:02:05.921Z,89.00
2018-03-31T07:03:05.796Z,89.00
2018-03-31T07:04:05.887Z,88.90
2018-03-31T07:05:11.015Z,89.00
2018-03-31T07:06:05.771Z,89.00
2018-03-31T07:07:05.691Z,88.90
2018-03-31T07:08:08.936Z,88.90
2018-03-31T07:09:08.701Z,88.90
2018-03-31T07:10:06.263Z,88.90
2018-03-31T07:11:06.093Z,89.00
2018-03-31T07:12:16.074Z,88.90
2018-03-31T07:13:05.710Z,88.90
2018-03-31T07:14:13.884Z,88.90
2018-03-31T07:15:06.511Z,88.90
2018-03-31T07:16:06.248Z,88.80
2018-03-31T07:17:13.731Z,88.80
2018-03-31T07:18:06.269Z,88.80
2018-03-31T07:19:06.115Z,88.70
2018-03-31T07:20:08.115Z,88.80
2018-03-31T07:21:08.097Z,89.00
2018-03-31T07:22:05.790Z,89.00
2018-03-31T07:23:06.057Z,89.00
2018-03-31T07:24:05.856Z,89.10
2018-03-31T07:25:08.462Z,89.00
2018-03-31T07:26:11.092Z,89.00
2018-03-31T07:27:10.603Z,89.10
2018-03-31T07:28:06.517Z,89.10
2018-03-31T07:29:08.345Z,88.90
2018-03-31T07:30:06.068Z,88.90
2018-03-31T07:31:12.343Z,88.90
2018-03-31T07:32:14.304Z,88.80
2018-03-31T07:33:06.200Z,88.80
2018-03-31T07:34:06.834Z,88.90
2018-03-31T07:35:05.832Z,88.80
2018-03-31T07:36:05.659Z,88.80
2018-03-31T07:37:06.284Z,88.80
2018-03-31T07:38:11.038Z,88.70
2018-03-31T07:39:05.518Z,88.70
2018-03-31T07:40:06.312Z,88.60
2018-03-31T07:41:08.508Z,88.50
2018-03-31T07:42:06.030Z,88.50
2018-03-31T07:43:14.777Z,88.40
2018-03-31T07:44:06.428Z,88.40
2018-03-31T07:45:08.645Z,88.50
2018-03-31T07:46:06.126Z,88.50
2018-03-31T07:47:06.019Z,88.50
2018-03-31T07:48:06.774Z,88.40
2018-03-31T07:49:06.426Z,88.40
2018-03-31T07:50:08.656Z,88.50
2018-03-31T07:51:08.737Z,88.40
2018-03-31T07:52:06.665Z,88.40
2018-03-31T07:53:06.355Z,88.40
2018-03-31T07:54:06.319Z,88.40
2018-03-31T07:55:05.849Z,88.30
2018-03-31T07:56:08.432Z,88.20
2018-03-31T07:57:10.936Z,88.20
2018-03-31T07:58:06.329Z,88.10
2018-03-31T07:59:06.026Z,88.10
2018-03-31T08:00:05.613Z,88.00
2018-03-31T08:01:05.809Z,88.00
2018-03-31T08:02:10.673Z,87.80
2018-03-31T08:03:06.201Z,87.80
2018-03-31T08:04:13.671Z,87.70
2018-03-31T08:05:06.236Z,87.70
2018-03-31T08:06:10.917Z,87.90
2018-03-31T08:07:06.619Z,87.90
2018-03-31T08:08:08.796Z,88.10
2018-03-31T08:09:06.241Z,88.00
2018-03-31T08:10:08.406Z,87.90
2018-03-31T08:11:05.925Z,87.90
2018-03-31T08:12:05.756Z,88.00
2018-03-31T08:13:06.339Z,87.90
2018-03-31T08:14:05.918Z,88.10
2018-03-31T08:15:10.711Z,87.90
2018-03-31T08:16:08.762Z,87.80
2018-03-31T08:17:08.869Z,87.70
2018-03-31T08:18:06.407Z,87.70
2018-03-31T08:19:11.085Z,87.70
2018-03-31T08:20:05.687Z,87.70
2018-03-31T08:21:07.529Z,87.60
2018-03-31T08:22:06.214Z,87.60
2018-03-31T08:23:08.622Z,87.30
2018-03-31T08:24:08.653Z,87.40
2018-03-31T08:25:06.362Z,87.40
2018-03-31T08:26:05.974Z,87.50
2018-03-31T08:27:08.420Z,87.40
2018-03-31T08:28:05.968Z,87.30
2018-03-31T08:29:06.537Z,87.40
2018-03-31T08:30:11.165Z,87.30
2018-03-31T08:31:05.806Z,87.30
2018-03-31T08:32:11.490Z,87.20
2018-03-31T08:33:06.221Z,87.10
2018-03-31T08:34:08.014Z,86.90
2018-03-31T08:35:10.536Z,86.90
2018-03-31T08:36:05.941Z,86.90
2018-03-31T08:37:06.030Z,86.60
2018-03-31T08:38:08.490Z,86.40
2018-03-31T08:39:11.185Z,86.20
2018-03-31T08:40:10.674Z,86.20
2018-03-31T08:41:08.774Z,86.20
2018-03-31T08:42:09.862Z,86.20
2018-03-31T08:43:05.639Z,86.20
2018-03-31T08:44:10.865Z,86.30
2018-03-31T08:45:05.648Z,86.20
2018-03-31T08:46:05.717Z,86.40
2018-03-31T08:47:05.981Z,86.30
2018-03-31T08:48:06.082Z,86.40
2018-03-31T08:49:06.084Z,86.50
2018-03-31T08:50:08.335Z,86.60
2018-03-31T08:51:13.478Z,86.60
2018-03-31T08:52:06.028Z,86.60
2018-03-31T08:53:06.011Z,86.50
2018-03-31T08:54:05.943Z,86.40
2018-03-31T08:55:06.076Z,86.30
2018-03-31T08:56:05.654Z,86.40
2018-03-31T08:57:05.736Z,86.30
2018-03-31T08:58:06.349Z,86.40
2018-03-31T08:59:11.084Z,86.30
2018-03-31T09:00:05.501Z,86.30
2018-03-31T09:01:05.695Z,86.20
2018-03-31T09:02:06.107Z,86.20
2018-03-31T09:03:08.749Z,86.10
2018-03-31T09:04:06.287Z,86.10
2018-03-31T09:05:10.858Z,86.10
2018-03-31T09:06:06.558Z,85.90
2018-03-31T09:07:06.390Z,85.90
2018-03-31T09:08:10.952Z,85.60
2018-03-31T09:09:06.420Z,85.50
2018-03-31T09:10:08.469Z,85.50
2018-03-31T09:11:05.902Z,85.50
2018-03-31T09:12:10.550Z,85.50
2018-03-31T09:13:08.540Z,85.60
2018-03-31T09:14:08.559Z,85.60
2018-03-31T09:15:08.682Z,85.70
2018-03-31T09:16:06.232Z,85.80
2018-03-31T09:17:06.345Z,85.70
2018-03-31T09:18:06.344Z,85.90
2018-03-31T09:19:06.264Z,85.90
2018-03-31T09:20:05.912Z,86.00
2018-03-31T09:21:05.676Z,86.10
2018-03-31T09:22:05.854Z,86.30
2018-03-31T09:23:05.899Z,86.80
2018-03-31T09:24:06.125Z,87.20
2018-03-31T09:25:08.649Z,86.80
2018-03-31T09:26:06.356Z,86.80
2018-03-31T09:27:06.122Z,86.70
2018-03-31T09:28:10.661Z,86.60
2018-03-31T09:29:06.124Z,86.70
2018-03-31T09:30:06.107Z,86.90
2018-03-31T09:31:06.054Z,87.10
2018-03-31T09:32:08.178Z,86.80
2018-03-31T09:33:05.674Z,86.80
2018-03-31T09:34:05.917Z,86.40
2018-03-31T09:35:08.905Z,86.00
2018-03-31T09:36:09.007Z,85.60
2018-03-31T09:37:05.572Z,85.60
2018-03-31T09:38:05.864Z,84.90
2018-03-31T09:39:05.954Z,84.50
2018-03-31T09:40:05.624Z,84.30
2018-03-31T09:41:08.438Z,84.20
2018-03-31T09:42:06.113Z,84.20
2018-03-31T09:43:05.653Z,84.20
2018-03-31T09:44:11.223Z,84.00
2018-03-31T09:45:08.182Z,83.90
2018-03-31T09:46:15.787Z,83.70
2018-03-31T09:47:06.273Z,83.70
2018-03-31T09:48:06.212Z,83.70
2018-03-31T09:49:06.156Z,83.70
2018-03-31T09:50:06.138Z,83.80
2018-03-31T09:51:10.784Z,83.80
2018-03-31T09:52:11.233Z,83.80
2018-03-31T09:53:08.273Z,83.80
2018-03-31T09:54:11.555Z,83.80
2018-03-31T09:55:08.718Z,83.40
2018-03-31T09:56:06.236Z,83.40
2018-03-31T09:57:11.018Z,82.90
2018-03-31T09:58:08.924Z,82.90
2018-03-31T09:59:08.684Z,82.50
2018-03-31T10:00:06.132Z,82.50
2018-03-31T10:01:05.686Z,82.10
2018-03-31T10:02:06.300Z,81.60
2018-03-31T10:03:05.893Z,81.10
2018-03-31T10:04:05.766Z,81.10
2018-03-31T10:05:08.118Z,81.20
2018-03-31T10:06:05.817Z,81.20
2018-03-31T10:07:10.709Z,81.40
2018-03-31T10:08:06.443Z,81.40
2018-03-31T10:09:06.169Z,81.30
2018-03-31T10:10:05.894Z,81.40
2018-03-31T10:11:05.653Z,81.20
2018-03-31T10:12:05.702Z,81.40
2018-03-31T10:13:14.468Z,81.30
2018-03-31T10:14:06.472Z,81.30
2018-03-31T10:15:06.276Z,81.10
2018-03-31T10:16:06.206Z,80.90
2018-03-31T10:17:05.877Z,80.90
2018-03-31T10:18:05.739Z,81.10
2018-03-31T10:19:05.598Z,81.20
2018-03-31T10:20:05.548Z,81.30
2018-03-31T10:21:08.346Z,81.60
2018-03-31T10:22:06.148Z,81.60
2018-03-31T10:23:10.865Z,81.70
2018-03-31T10:24:06.432Z,81.70
2018-03-31T10:25:11.271Z,81.70
2018-03-31T10:26:05.761Z,81.70
2018-03-31T10:27:05.810Z,81.70
2018-03-31T10:28:05.999Z,81.90
2018-03-31T10:29:06.146Z,82.20
2018-03-31T10:30:10.721Z,82.30
2018-03-31T10:31:08.741Z,82.30
2018-03-31T10:32:06.333Z,82.20
2018-03-31T10:33:05.865Z,82.40
2018-03-31T10:34:06.008Z,82.30
2018-03-31T10:35:05.631Z,82.20
2018-03-31T10:36:10.652Z,82.10
2018-03-31T10:37:06.205Z,82.10
2018-03-31T10:38:06.354Z,81.90
2018-03-31T10:39:06.214Z,81.80
2018-03-31T10:40:11.084Z,81.90
2018-03-31T10:41:06.013Z,81.90
2018-03-31T10:42:05.896Z,81.70
2018-03-31T10:43:05.764Z,81.30
2018-03-31T10:44:10.660Z,80.40
2018-03-31T10:45:06.328Z,80.30
2018-03-31T10:46:08.621Z,79.40
2018-03-31T10:47:06.035Z,79.40
2018-03-31T10:48:06.044Z,79.40
2018-03-31T10:49:06.477Z,79.30
2018-03-31T10:50:08.674Z,79.10
2018-03-31T10:51:06.320Z,79.20
2018-03-31T10:52:06.382Z,79.20
2018-03-31T10:53:05.969Z,79.20
2018-03-31T10:54:06.113Z,79.00
2018-03-31T10:55:08.473Z,78.30
2018-03-31T10:56:08.478Z,78.00
2018-03-31T10:57:05.795Z,78.00
2018-03-31T10:58:06.433Z,78.20
2018-03-31T10:59:05.793Z,78.50
2018-03-31T11:00:11.473Z,78.80
2018-03-31T11:01:09.299Z,78.70
2018-03-31T11:02:05.605Z,78.70
2018-03-31T11:03:06.469Z,78.50
2018-03-31T11:04:06.075Z,78.40
2018-03-31T11:05:10.783Z,78.70
2018-03-31T11:06:06.275Z,78.70
2018-03-31T11:07:11.241Z,78.80
2018-03-31T11:08:10.718Z,79.20
2018-03-31T11:09:11.369Z,79.40
2018-03-31T11:10:10.974Z,79.20
2018-03-31T11:11:05.731Z,79.20
2018-03-31T11:12:08.269Z,79.00
2018-03-31T11:13:08.335Z,78.90
2018-03-31T11:14:05.572Z,78.90
2018-03-31T11:15:11.129Z,78.90
2018-03-31T11:16:10.665Z,79.00
2018-03-31T11:17:06.389Z,79.00
2018-03-31T11:18:06.076Z,79.00
2018-03-31T11:19:06.366Z,78.90
2018-03-31T11:20:06.185Z,79.10
2018-03-31T11:21:05.865Z,79.20
2018-03-31T11:22:15.616Z,78.80
2018-03-31T11:23:06.101Z,78.80
2018-03-31T11:24:11.499Z,78.80
2018-03-31T11:25:06.123Z,78.80
2018-03-31T11:26:06.780Z,78.70
2018-03-31T11:27:10.987Z,78.80
2018-03-31T11:28:06.443Z,78.80
2018-03-31T11:29:08.476Z,78.40
2018-03-31T11:30:08.432Z,78.30
2018-03-31T11:31:10.945Z,78.20
2018-03-31T11:32:08.434Z,78.20
2018-03-31T11:33:06.003Z,78.20
2018-03-31T11:34:06.504Z,78.20
2018-03-31T11:35:06.445Z,78.20
2018-03-31T11:36:06.245Z,77.70
2018-03-31T11:37:11.157Z,77.40
2018-03-31T11:38:05.707Z,77.40
2018-03-31T11:39:05.831Z,77.40
2018-03-31T11:40:06.243Z,77.60
2018-03-31T11:41:05.923Z,77.70
2018-03-31T11:42:06.154Z,77.50
2018-03-31T11:43:05.946Z,77.30
2018-03-31T11:44:06.301Z,77.30
2018-03-31T11:45:08.410Z,77.60
2018-03-31T11:46:08.390Z,77.70
2018-03-31T11:47:08.242Z,77.90
2018-03-31T11:48:13.382Z,78.10
2018-03-31T11:49:10.867Z,78.00
2018-03-31T11:50:08.971Z,78.00
2018-03-31T11:51:08.946Z,77.80
2018-03-31T11:52:11.473Z,77.80
2018-03-31T11:53:11.137Z,77.80
2018-03-31T11:54:15.713Z,77.80
2018-03-31T11:55:08.774Z,77.90
2018-03-31T11:56:11.406Z,78.00
2018-03-31T11:57:10.976Z,78.10
2018-03-31T11:58:06.486Z,78.10
2018-03-31T11:59:06.132Z,78.30
2018-03-31T12:00:08.542Z,78.50
2018-03-31T12:01:06.048Z,78.40
2018-03-31T12:02:06.468Z,78.30
2018-03-31T12:03:06.271Z,78.30
2018-03-31T12:04:08.696Z,78.50
2018-03-31T12:05:06.123Z,78.50
2018-03-31T12:06:06.066Z,78.60
2018-03-31T12:07:11.136Z,78.80
2018-03-31T12:08:10.824Z,79.20
2018-03-31T12:09:11.443Z,79.20
2018-03-31T12:10:08.410Z,79.40
2018-03-31T12:11:08.425Z,79.50
2018-03-31T12:12:06.022Z,79.50
2018-03-31T12:13:06.053Z,79.50
2018-03-31T12:14:10.781Z,79.50
2018-03-31T12:15:11.295Z,79.40
2018-03-31T12:16:05.765Z,79.40
2018-03-31T12:17:06.472Z,79.40
2018-03-31T12:18:08.801Z,79.20
2018-03-31T12:19:06.243Z,79.20
2018-03-31T12:20:06.232Z,79.10
2018-03-31T12:21:10.869Z,79.40
2018-03-31T12:22:11.335Z,79.10
2018-03-31T12:23:10.818Z,79.00
2018-03-31T12:24:06.382Z,79.00
2018-03-31T12:25:06.180Z,78.80
2018-03-31T12:26:06.208Z,78.70
2018-03-31T12:27:06.383Z,78.70
2018-03-31T12:28:06.167Z,78.60
2018-03-31T12:29:05.748Z,78.60
2018-03-31T12:30:06.085Z,78.50
2018-03-31T12:31:05.878Z,78.10
2018-03-31T12:32:08.445Z,78.10
2018-03-31T12:33:11.091Z,77.80
2018-03-31T12:34:05.528Z,77.80
2018-03-31T12:35:05.539Z,77.80
2018-03-31T12:36:11.476Z,77.50
2018-03-31T12:37:05.983Z,77.50
2018-03-31T12:38:11.080Z,78.00
2018-03-31T12:39:08.694Z,78.10
2018-03-31T12:40:06.457Z,78.10
2018-03-31T12:41:06.333Z,78.20
2018-03-31T12:42:05.934Z,78.20
2018-03-31T12:43:11.159Z,78.20
2018-03-31T12:44:10.644Z,78.00
2018-03-31T12:45:06.277Z,78.00
2018-03-31T12:46:08.513Z,77.90
2018-03-31T12:47:06.359Z,77.90
2018-03-31T12:48:06.025Z,77.80
2018-03-31T12:49:06.024Z,77.80
2018-03-31T12:50:11.177Z,77.50
2018-03-31T12:51:10.783Z,77.70
2018-03-31T12:52:06.550Z,77.70